createdAt,value
2019-01-26T09:01:22.423Z,1.80
2019-01-26T09:03:56.897Z,1.90
2019-01-26T09:06:30.984Z,1.90
2019-01-26T09:22:55.055Z,2.10
2019-01-26T09:38:06.302Z,2.00
2019-01-26T09:59:13.715Z,2.20
2019-01-26T10:01:42.916Z,2.40
2019-01-26T10:04:11.535Z,2.20
2019-01-26T10:06:40.186Z,2.30
2019-01-26T10:09:09.939Z,2.40
2019-01-26T10:11:38.647Z,2.40
2019-01-26T10:14:18.068Z,2.40
2019-01-26T10:19:59.662Z,2.40
2019-01-26T10:25:20.652Z,2.40
2019-01-26T10:27:49.447Z,2.40
2019-01-26T10:30:28.697Z,2.50
2019-01-26T10:33:00.246Z,2.50
2019-01-26T10:35:35.254Z,2.50
2019-01-26T10:38:05.183Z,2.60
2019-01-26T10:40:35.600Z,2.50
2019-01-26T10:43:05.001Z,2.60
2019-01-26T10:48:23.224Z,2.50
2019-01-26T10:50:51.952Z,2.60
2019-01-26T10:53:20.833Z,2.70
2019-01-26T10:55:49.423Z,2.60
2019-01-26T10:58:18.241Z,2.70
2019-01-26T11:00:47.840Z,2.70
2019-01-26T11:03:16.601Z,2.80
2019-01-26T11:05:45.539Z,2.70
2019-01-26T11:08:16.574Z,2.80
2019-01-26T11:10:45.335Z,2.90
2019-01-26T11:13:14.003Z,2.70
2019-01-26T11:15:42.710Z,2.70
2019-01-26T11:18:11.364Z,2.70
2019-01-26T11:20:40.243Z,2.80
2019-01-26T11:23:08.925Z,2.80
2019-01-26T11:25:37.674Z,2.80
2019-01-26T11:28:06.354Z,2.80
2019-01-26T11:30:36.804Z,3.00
2019-01-26T11:33:05.480Z,3.00
2019-01-26T11:35:34.156Z,2.90
2019-01-26T11:38:02.823Z,2.90
2019-01-26T11:40:32.108Z,3.00
2019-01-26T11:43:01.098Z,2.90
2019-01-26T11:45:45.879Z,2.90
2019-01-26T11:48:31.451Z,2.90
2019-01-26T11:51:10.444Z,2.90
2019-01-26T11:53:39.059Z,2.90
2019-01-26T11:56:12.084Z,2.90
2019-01-26T11:58:40.736Z,2.80
2019-01-26T12:01:14.718Z,2.90
2019-01-26T12:06:26.477Z,3.00
2019-01-26T12:08:55.206Z,2.90
2019-01-26T12:11:23.820Z,2.90
2019-01-26T12:13:52.593Z,3.00
2019-01-26T12:16:26.841Z,3.00
2019-01-26T12:18:51.606Z,3.00
2019-01-26T12:21:20.358Z,3.00
2019-01-26T12:23:49.519Z,3.00
2019-01-26T12:26:19.834Z,2.90
2019-01-26T12:28:48.664Z,3.00
2019-01-26T12:31:17.446Z,3.00
2019-01-26T12:33:46.230Z,3.10
2019-01-26T12:36:14.987Z,3.20
2019-01-26T12:38:43.812Z,3.10
2019-01-26T12:41:12.610Z,3.10
2019-01-26T12:43:41.330Z,3.10
2019-01-26T12:46:10.164Z,3.20
2019-01-26T12:48:38.771Z,3.10
2019-01-26T12:51:07.667Z,3.00
2019-01-26T12:53:36.784Z,3.00
2019-01-26T12:56:06.055Z,3.00
2019-01-26T12:58:34.715Z,3.10
2019-01-26T13:01:03.770Z,3.20
2019-01-26T13:03:32.512Z,3.20
2019-01-26T13:06:01.308Z,3.20
2019-01-26T13:08:29.941Z,3.30
2019-01-26T13:11:04.334Z,3.30
2019-01-26T13:13:32.910Z,3.40
2019-01-26T13:16:01.597Z,3.50
2019-01-26T13:18:30.262Z,3.50
2019-01-26T13:20:58.997Z,3.50
2019-01-26T13:23:27.614Z,3.40
2019-01-26T13:25:56.254Z,3.40
2019-01-26T13:28:25.031Z,3.40
2019-01-26T13:30:53.748Z,3.40
2019-01-26T13:33:22.415Z,3.30
2019-01-26T13:35:51.113Z,3.30
2019-01-26T13:38:19.879Z,3.40
2019-01-26T13:40:48.596Z,3.40
2019-01-26T13:43:17.390Z,3.40
2019-01-26T13:45:47.339Z,3.40
2019-01-26T13:48:15.914Z,3.40
2019-01-26T13:50:44.663Z,3.40
2019-01-26T13:53:14.547Z,3.40
2019-01-26T13:55:43.275Z,3.50
2019-01-26T13:58:11.959Z,3.40
2019-01-26T14:00:40.703Z,3.40
2019-01-26T14:03:09.351Z,3.40
2019-01-26T14:05:38.116Z,3.40
2019-01-26T14:08:08.788Z,3.40
2019-01-26T14:10:37.563Z,3.40
2019-01-26T14:13:06.326Z,3.40
2019-01-26T14:15:35.179Z,3.40
2019-01-26T14:18:04.072Z,3.20
2019-01-26T14:20:32.751Z,3.30
2019-01-26T14:23:01.571Z,3.30
2019-01-26T14:25:30.155Z,3.30
2019-01-26T14:27:58.862Z,3.30
2019-01-26T14:30:39.188Z,3.30
2019-01-26T14:33:08.855Z,3.30
2019-01-26T14:35:37.401Z,3.30
2019-01-26T14:38:06.327Z,3.20
2019-01-26T14:40:35.002Z,3.30
2019-01-26T14:43:03.846Z,3.30
2019-01-26T14:45:32.557Z,3.30
2019-01-26T14:48:01.339Z,3.30
2019-01-26T14:50:30.085Z,3.30
2019-01-26T14:52:58.767Z,3.30
2019-01-26T14:55:31.117Z,3.30
2019-01-26T14:57:59.887Z,3.30
2019-01-26T15:00:39.728Z,3.40
2019-01-26T15:03:08.536Z,3.30
2019-01-26T15:05:37.209Z,3.40
2019-01-26T15:08:06.055Z,3.40
2019-01-26T15:10:40.888Z,3.40
2019-01-26T15:13:09.856Z,3.40
2019-01-26T15:15:39.507Z,3.40
2019-01-26T15:18:13.160Z,3.40
2019-01-26T15:20:41.657Z,3.40
2019-01-26T15:23:10.464Z,3.40
2019-01-26T15:25:39.188Z,3.40
2019-01-26T15:28:08.702Z,3.50
2019-01-26T15:30:39.346Z,3.50
2019-01-26T15:33:08.563Z,3.50
2019-01-26T15:35:37.180Z,3.50
2019-01-26T15:38:06.593Z,3.50
2019-01-26T15:40:35.223Z,3.50
2019-01-26T15:43:04.183Z,3.50
2019-01-26T15:45:41.184Z,3.50
2019-01-26T15:48:09.846Z,3.50
2019-01-26T15:50:38.583Z,3.50
2019-01-26T15:53:07.320Z,3.50
2019-01-26T15:55:36.094Z,3.50
2019-01-26T15:58:05.117Z,3.50
2019-01-26T16:00:39.172Z,3.50
2019-01-26T16:03:08.193Z,3.50
2019-01-26T16:05:37.015Z,3.50
2019-01-26T16:08:06.310Z,3.50
2019-01-26T16:10:35.033Z,3.50
2019-01-26T16:13:03.724Z,3.50
2019-01-26T16:15:35.010Z,3.50
2019-01-26T16:18:04.559Z,3.50
2019-01-26T16:20:33.277Z,3.50
2019-01-26T16:23:01.838Z,3.50
2019-01-26T16:25:30.626Z,3.50
2019-01-26T16:27:59.299Z,3.50
2019-01-26T16:30:30.183Z,3.50
2019-01-26T16:32:58.985Z,3.60
2019-01-26T16:35:27.647Z,3.50
2019-01-26T16:37:56.255Z,3.50
2019-01-26T16:40:33.329Z,3.60
2019-01-26T16:43:01.952Z,3.60
2019-01-26T16:45:33.223Z,3.60
2019-01-26T16:48:01.883Z,3.70
2019-01-26T16:50:31.611Z,3.70
2019-01-26T16:53:00.682Z,3.70
2019-01-26T16:55:29.483Z,3.70
2019-01-26T16:57:58.139Z,3.80
2019-01-26T17:00:43.621Z,3.80
2019-01-26T17:03:12.447Z,3.80
2019-01-26T17:05:41.219Z,3.80
2019-01-26T17:08:10.620Z,3.80
2019-01-26T17:10:39.314Z,3.80
2019-01-26T17:13:07.957Z,3.80
2019-01-26T17:15:36.657Z,3.90
2019-01-26T17:18:06.159Z,3.90
2019-01-26T17:20:41.409Z,3.90
2019-01-26T17:23:10.144Z,3.90
2019-01-26T17:25:38.810Z,3.90
2019-01-26T17:28:07.535Z,3.90
2019-01-26T17:30:40.776Z,4.00
2019-01-26T17:33:09.770Z,4.00
2019-01-26T17:35:38.611Z,4.00
2019-01-26T17:38:07.387Z,4.00
2019-01-26T17:40:36.021Z,4.00
2019-01-26T17:43:04.864Z,4.00
2019-01-26T17:45:35.085Z,4.00
2019-01-26T17:48:03.977Z,4.00
2019-01-26T17:50:32.591Z,4.00
2019-01-26T17:53:01.183Z,4.00
2019-01-26T17:55:29.848Z,4.00
2019-01-26T17:57:58.526Z,4.10
2019-01-26T18:00:31.195Z,4.10
2019-01-26T18:02:59.967Z,4.10
2019-01-26T18:05:28.638Z,4.10
2019-01-26T18:07:57.486Z,4.10
2019-01-26T18:10:26.918Z,4.10
2019-01-26T18:12:56.661Z,4.10
2019-01-26T18:15:25.209Z,4.10
2019-01-26T18:17:53.859Z,4.10
2019-01-26T18:20:27.489Z,4.10
2019-01-26T18:22:56.180Z,4.00
2019-01-26T18:25:32.452Z,4.00
2019-01-26T18:28:01.136Z,4.00
2019-01-26T18:30:31.726Z,4.00
2019-01-26T18:33:00.446Z,4.00
2019-01-26T18:35:29.119Z,4.00
2019-01-26T18:37:57.844Z,4.00
2019-01-26T18:40:28.650Z,4.00
2019-01-26T18:42:57.396Z,4.00
2019-01-26T18:45:28.031Z,4.00
2019-01-26T18:47:56.774Z,4.00
2019-01-26T18:50:33.907Z,4.00
2019-01-26T18:53:02.679Z,4.00
2019-01-26T18:55:31.408Z,4.00
2019-01-26T18:58:00.104Z,4.00
2019-01-26T19:00:31.246Z,4.00
2019-01-26T19:03:02.914Z,4.00
2019-01-26T19:05:34.202Z,4.00
2019-01-26T19:08:02.879Z,4.00
2019-01-26T19:10:31.448Z,4.00
2019-01-26T19:13:01.192Z,4.00
2019-01-26T19:15:31.137Z,4.00
2019-01-26T19:17:59.769Z,4.00
2019-01-26T19:20:28.383Z,4.00
2019-01-26T19:22:56.956Z,4.00
2019-01-26T19:25:26.172Z,4.00
2019-01-26T19:27:57.522Z,4.00
2019-01-26T19:30:26.615Z,4.00
2019-01-26T19:32:55.196Z,4.00
2019-01-26T19:35:23.935Z,4.00
2019-01-26T19:37:52.724Z,4.10
2019-01-26T19:40:25.088Z,4.10
2019-01-26T19:42:53.771Z,4.10
2019-01-26T19:45:24.095Z,4.00
2019-01-26T19:47:52.747Z,4.10
2019-01-26T19:50:24.411Z,4.00
2019-01-26T19:52:53.130Z,4.10
2019-01-26T19:55:23.274Z,4.10
2019-01-26T19:57:51.994Z,4.10
2019-01-26T20:00:20.726Z,4.10
2019-01-26T20:02:49.579Z,4.10
2019-01-26T20:05:26.514Z,4.10
2019-01-26T20:07:55.422Z,4.10
2019-01-26T20:10:24.167Z,4.10
2019-01-26T20:12:52.781Z,4.10
2019-01-26T20:15:25.554Z,4.10
2019-01-26T20:17:54.379Z,4.10
2019-01-26T20:20:41.448Z,4.10
2019-01-26T20:23:09.996Z,4.10
2019-01-26T20:25:38.652Z,4.10
2019-01-26T20:28:07.390Z,4.10
2019-01-26T20:30:36.220Z,4.10
2019-01-26T20:33:05.316Z,4.10
2019-01-26T20:35:33.898Z,4.10
2019-01-26T20:38:06.105Z,4.10
2019-01-26T20:40:35.073Z,4.10
2019-01-26T20:43:03.722Z,4.10
2019-01-26T20:45:32.378Z,4.10
2019-01-26T20:48:01.026Z,4.10
2019-01-26T20:50:29.662Z,4.10
2019-01-26T20:52:58.276Z,4.10
2019-01-26T20:55:26.917Z,4.10
2019-01-26T20:57:55.518Z,4.10
2019-01-26T21:00:29.480Z,4.10
2019-01-26T21:02:58.132Z,4.10
2019-01-26T21:05:26.700Z,4.10
2019-01-26T21:07:55.338Z,4.10
2019-01-26T21:10:26.539Z,4.10
2019-01-26T21:12:55.135Z,4.10
2019-01-26T21:15:23.880Z,4.20
2019-01-26T21:17:52.611Z,4.10
2019-01-26T21:20:23.218Z,4.10
2019-01-26T21:22:51.895Z,4.10
2019-01-26T21:25:20.602Z,4.10
2019-01-26T21:27:49.260Z,4.10
2019-01-26T21:30:20.631Z,4.10
2019-01-26T21:32:49.382Z,4.10
2019-01-26T21:35:18.147Z,4.20
2019-01-26T21:37:46.855Z,4.20
2019-01-26T21:40:24.034Z,4.20
2019-01-26T21:42:52.788Z,4.20
2019-01-26T21:45:21.685Z,4.20
2019-01-26T21:47:50.304Z,4.30
2019-01-26T21:50:24.777Z,4.30
2019-01-26T21:52:53.344Z,4.30
2019-01-26T21:55:22.033Z,4.40
2019-01-26T21:57:50.700Z,4.40
2019-01-26T22:00:21.900Z,4.40
2019-01-26T22:02:50.548Z,4.40
2019-01-26T22:05:19.280Z,4.40
2019-01-26T22:07:48.043Z,4.40
2019-01-26T22:10:18.849Z,4.40
2019-01-26T22:12:47.797Z,4.40
2019-01-26T22:15:18.282Z,4.40
2019-01-26T22:17:46.954Z,4.40
2019-01-26T22:20:18.087Z,4.40
2019-01-26T22:22:47.430Z,4.40
2019-01-26T22:25:16.103Z,4.40
2019-01-26T22:27:44.822Z,4.50
2019-01-26T22:30:21.585Z,4.50
2019-01-26T22:32:50.271Z,4.50
2019-01-26T22:35:19.116Z,4.50
2019-01-26T22:37:47.847Z,4.50
2019-01-26T22:40:28.115Z,4.60
2019-01-26T22:42:56.853Z,4.60
2019-01-26T22:45:25.883Z,4.50
2019-01-26T22:47:54.744Z,4.50
2019-01-26T22:50:25.138Z,4.60
2019-01-26T22:52:54.307Z,4.60
2019-01-26T22:55:23.155Z,4.60
2019-01-26T22:57:52.049Z,4.60
2019-01-26T23:00:43.120Z,4.60
2019-01-26T23:03:12.026Z,4.60
2019-01-26T23:05:52.689Z,4.60
2019-01-26T23:08:24.486Z,4.60
2019-01-26T23:10:59.293Z,4.60
2019-01-26T23:13:28.312Z,4.60
2019-01-26T23:16:16.900Z,4.60
2019-01-26T23:19:03.246Z,4.60
2019-01-26T23:21:46.743Z,4.60
2019-01-26T23:24:27.127Z,4.70
2019-01-26T23:27:10.419Z,4.70
2019-01-26T23:29:58.624Z,4.70
2019-01-26T23:32:27.345Z,4.80
2019-01-26T23:34:56.053Z,4.80
2019-01-26T23:37:24.783Z,4.80
2019-01-26T23:39:53.362Z,4.80
2019-01-26T23:42:22.072Z,4.80
2019-01-26T23:44:54.539Z,4.90
2019-01-26T23:47:38.649Z,4.90
2019-01-26T23:49:58.824Z,4.90
2019-01-26T23:52:27.415Z,4.90
2019-01-26T23:54:58.127Z,4.90
2019-01-26T23:57:26.657Z,4.90
2019-01-26T23:59:55.527Z,5.00
